sensor_id;sensor_type;location;lat;lon;timestamp;P1;durP1;ratioP1;P2;durP2;ratioP2
12980;SDS011;6555;50.468;8.480;2023-04-15T00:03:03;1.23;;;1.10;;
12980;SDS011;6555;50.468;8.480;2023-04-15T00:08:07;2.60;;;1.43;;
12980;SDS011;6555;50.468;8.480;2023-04-15T00:13:13;1.07;;;0.97;;
12980;SDS011;6555;50.468;8.480;2023-04-15T00:18:18;1.27;;;0.97;;
12980;SDS011;6555;50.468;8.480;2023-04-15T00:23:23;1.00;;;0.90;;
12980;SDS011;6555;50.468;8.480;2023-04-15T00:28:27;1.27;;;1.00;;
12980;SDS011;6555;50.468;8.480;2023-04-15T00:33:38;1.23;;;0.90;;
12980;SDS011;6555;50.468;8.480;2023-04-15T00:38:41;1.80;;;1.00;;
12980;SDS011;6555;50.468;8.480;2023-04-15T00:43:52;1.00;;;0.70;;
12980;SDS011;6555;50.468;8.480;2023-04-15T00:48:57;1.27;;;0.80;;
12980;SDS011;6555;50.468;8.480;2023-04-15T00:54:02;0.90;;;0.90;;
12980;SDS011;6555;50.468;8.480;2023-04-15T00:59:06;1.10;;;1.00;;
12980;SDS011;6555;50.468;8.480;2023-04-15T01:04:11;1.20;;;0.80;;
12980;SDS011;6555;50.468;8.480;2023-04-15T01:09:17;1.57;;;0.90;;
12980;SDS011;6555;50.468;8.480;2023-04-15T01:14:21;1.00;;;0.90;;
12980;SDS011;6555;50.468;8.480;2023-04-15T01:19:26;1.00;;;0.93;;
12980;SDS011;6555;50.468;8.480;2023-04-15T01:24:30;0.87;;;0.87;;
12980;SDS011;6555;50.468;8.480;2023-04-15T01:29:36;1.33;;;1.00;;
12980;SDS011;6555;50.468;8.480;2023-04-15T01:34:40;1.10;;;0.80;;
12980;SDS011;6555;50.468;8.480;2023-04-15T01:39:43;0.80;;;0.80;;
12980;SDS011;6555;50.468;8.480;2023-04-15T01:44:48;1.53;;;0.93;;
12980;SDS011;6555;50.468;8.480;2023-04-15T01:49:53;1.10;;;1.00;;
12980;SDS011;6555;50.468;8.480;2023-04-15T01:55:02;1.13;;;1.03;;
12980;SDS011;6555;50.468;8.480;2023-04-15T02:00:10;1.43;;;1.30;;
12980;SDS011;6555;50.468;8.480;2023-04-15T02:05:14;0.80;;;0.80;;
12980;SDS011;6555;50.468;8.480;2023-04-15T02:10:21;0.97;;;0.80;;
12980;SDS011;6555;50.468;8.480;2023-04-15T02:15:28;0.80;;;0.80;;
12980;SDS011;6555;50.468;8.480;2023-04-15T02:20:32;0.93;;;0.87;;
12980;SDS011;6555;50.468;8.480;2023-04-15T02:25:42;1.43;;;1.00;;
12980;SDS011;6555;50.468;8.480;2023-04-15T02:30:55;0.83;;;0.80;;
12980;SDS011;6555;50.468;8.480;2023-04-15T02:36:00;0.83;;;0.83;;
12980;SDS011;6555;50.468;8.480;2023-04-15T02:41:05;0.77;;;0.77;;
12980;SDS011;6555;50.468;8.480;2023-04-15T02:46:10;0.87;;;0.87;;
12980;SDS011;6555;50.468;8.480;2023-04-15T02:51:16;0.87;;;0.87;;
12980;SDS011;6555;50.468;8.480;2023-04-15T02:56:21;0.60;;;0.60;;
12980;SDS011;6555;50.468;8.480;2023-04-15T03:01:28;2.57;;;0.90;;
12980;SDS011;6555;50.468;8.480;2023-04-15T03:06:32;0.80;;;0.80;;
12980;SDS011;6555;50.468;8.480;2023-04-15T03:11:37;0.70;;;0.70;;
12980;SDS011;6555;50.468;8.480;2023-04-15T03:16:45;0.73;;;0.73;;
12980;SDS011;6555;50.468;8.480;2023-04-15T03:22:01;0.90;;;0.90;;
12980;SDS011;6555;50.468;8.480;2023-04-15T03:27:04;0.80;;;0.73;;
12980;SDS011;6555;50.468;8.480;2023-04-15T03:32:10;0.70;;;0.70;;
12980;SDS011;6555;50.468;8.480;2023-04-15T03:37:20;2.90;;;1.00;;
12980;SDS011;6555;50.468;8.480;2023-04-15T03:42:27;1.30;;;1.00;;
12980;SDS011;6555;50.468;8.480;2023-04-15T03:47:34;0.87;;;0.87;;
12980;SDS011;6555;50.468;8.480;2023-04-15T03:52:44;1.00;;;0.90;;
12980;SDS011;6555;50.468;8.480;2023-04-15T03:57:48;0.70;;;0.70;;
12980;SDS011;6555;50.468;8.480;2023-04-15T04:03:07;1.40;;;0.83;;
12980;SDS011;6555;50.468;8.480;2023-04-15T04:08:14;0.73;;;0.73;;
12980;SDS011;6555;50.468;8.480;2023-04-15T04:13:19;0.80;;;0.80;;
12980;SDS011;6555;50.468;8.480;2023-04-15T04:18:24;1.30;;;0.97;;
12980;SDS011;6555;50.468;8.480;2023-04-15T04:23:28;0.83;;;0.83;;
12980;SDS011;6555;50.468;8.480;2023-04-15T04:28:32;0.73;;;0.70;;
12980;SDS011;6555;50.468;8.480;2023-04-15T04:33:38;0.73;;;0.70;;
12980;SDS011;6555;50.468;8.480;2023-04-15T04:38:42;0.77;;;0.77;;
12980;SDS011;6555;50.468;8.480;2023-04-15T04:43:48;0.70;;;0.70;;
12980;SDS011;6555;50.468;8.480;2023-04-15T04:48:53;2.53;;;1.30;;
12980;SDS011;6555;50.468;8.480;2023-04-15T04:53:56;0.97;;;0.90;;
12980;SDS011;6555;50.468;8.480;2023-04-15T04:59:04;0.70;;;0.70;;
12980;SDS011;6555;50.468;8.480;2023-04-15T05:04:12;0.60;;;0.60;;
12980;SDS011;6555;50.468;8.480;2023-04-15T05:09:19;0.70;;;0.70;;
12980;SDS011;6555;50.468;8.480;2023-04-15T05:14:23;0.80;;;0.80;;
12980;SDS011;6555;50.468;8.480;2023-04-15T05:19:28;0.90;;;0.90;;
12980;SDS011;6555;50.468;8.480;2023-04-15T05:24:31;1.03;;;0.90;;
12980;SDS011;6555;50.468;8.480;2023-04-15T05:29:35;1.47;;;0.90;;
12980;SDS011;6555;50.468;8.480;2023-04-15T05:34:39;0.83;;;0.83;;
12980;SDS011;6555;50.468;8.480;2023-04-15T05:39:42;1.50;;;1.17;;
12980;SDS011;6555;50.468;8.480;2023-04-15T05:44:46;1.47;;;1.07;;
12980;SDS011;6555;50.468;8.480;2023-04-15T05:49:52;1.17;;;1.07;;
12980;SDS011;6555;50.468;8.480;2023-04-15T05:54:56;1.57;;;1.43;;
12980;SDS011;6555;50.468;8.480;2023-04-15T05:59:59;1.47;;;1.37;;
12980;SDS011;6555;50.468;8.480;2023-04-15T06:05:11;1.50;;;1.40;;
12980;SDS011;6555;50.468;8.480;2023-04-15T06:10:15;1.57;;;1.27;;
12980;SDS011;6555;50.468;8.480;2023-04-15T06:15:18;1.60;;;1.40;;
12980;SDS011;6555;50.468;8.480;2023-04-15T06:20:23;3.03;;;2.70;;
12980;SDS011;6555;50.468;8.480;2023-04-15T06:25:27;3.10;;;2.30;;
12980;SDS011;6555;50.468;8.480;2023-04-15T06:30:30;3.07;;;2.10;;
12980;SDS011;6555;50.468;8.480;2023-04-15T06:35:35;2.40;;;1.97;;
12980;SDS011;6555;50.468;8.480;2023-04-15T06:40:39;2.67;;;1.57;;
12980;SDS011;6555;50.468;8.480;2023-04-15T06:45:42;1.30;;;1.20;;
12980;SDS011;6555;50.468;8.480;2023-04-15T06:50:47;1.50;;;1.40;;
12980;SDS011;6555;50.468;8.480;2023-04-15T06:55:51;1.50;;;1.40;;
12980;SDS011;6555;50.468;8.480;2023-04-15T07:01:06;1.50;;;1.40;;
12980;SDS011;6555;50.468;8.480;2023-04-15T07:06:11;1.90;;;1.43;;
12980;SDS011;6555;50.468;8.480;2023-04-15T07:11:14;1.77;;;1.67;;
12980;SDS011;6555;50.468;8.480;2023-04-15T07:16:25;1.57;;;1.47;;
12980;SDS011;6555;50.468;8.480;2023-04-15T07:21:35;1.70;;;1.57;;
12980;SDS011;6555;50.468;8.480;2023-04-15T07:26:56;1.73;;;1.50;;
12980;SDS011;6555;50.468;8.480;2023-04-15T07:32:13;1.60;;;1.50;;
12980;SDS011;6555;50.468;8.480;2023-04-15T07:37:28;2.43;;;1.40;;
12980;SDS011;6555;50.468;8.480;2023-04-15T07:42:31;1.37;;;1.27;;
12980;SDS011;6555;50.468;8.480;2023-04-15T07:47:35;2.40;;;1.37;;
12980;SDS011;6555;50.468;8.480;2023-04-15T07:52:40;1.60;;;1.50;;
12980;SDS011;6555;50.468;8.480;2023-04-15T07:57:49;2.03;;;1.60;;
12980;SDS011;6555;50.468;8.480;2023-04-15T08:03:11;3.43;;;1.73;;
12980;SDS011;6555;50.468;8.480;2023-04-15T08:08:18;1.60;;;1.50;;
12980;SDS011;6555;50.468;8.480;2023-04-15T08:13:22;1.47;;;1.37;;
12980;SDS011;6555;50.468;8.480;2023-04-15T08:18:34;2.13;;;1.37;;
12980;SDS011;6555;50.468;8.480;2023-04-15T08:23:49;1.33;;;1.23;;
12980;SDS011;6555;50.468;8.480;2023-04-15T08:29:02;1.87;;;1.40;;
12980;SDS011;6555;50.468;8.480;2023-04-15T08:34:09;1.47;;;1.20;;
12980;SDS011;6555;50.468;8.480;2023-04-15T08:39:14;1.90;;;1.57;;
12980;SDS011;6555;50.468;8.480;2023-04-15T08:44:46;1.30;;;1.20;;
12980;SDS011;6555;50.468;8.480;2023-04-15T08:49:50;2.30;;;1.70;;
12980;SDS011;6555;50.468;8.480;2023-04-15T08:54:58;1.70;;;1.50;;
12980;SDS011;6555;50.468;8.480;2023-04-15T09:00:04;2.00;;;1.60;;
12980;SDS011;6555;50.468;8.480;2023-04-15T09:05:10;1.67;;;1.40;;
12980;SDS011;6555;50.468;8.480;2023-04-15T09:10:21;1.40;;;1.30;;
12980;SDS011;6555;50.468;8.480;2023-04-15T09:15:27;1.13;;;1.03;;
12980;SDS011;6555;50.468;8.480;2023-04-15T09:20:37;1.73;;;1.30;;
12980;SDS011;6555;50.468;8.480;2023-04-15T09:25:44;1.30;;;1.20;;
12980;SDS011;6555;50.468;8.480;2023-04-15T09:31:28;1.40;;;0.87;;
12980;SDS011;6555;50.468;8.480;2023-04-15T09:49:45;0.90;;;0.77;;
12980;SDS011;6555;50.468;8.480;2023-04-15T09:56:09;0.77;;;0.77;;
12980;SDS011;6555;50.468;8.480;2023-04-15T10:02:15;0.60;;;0.60;;
12980;SDS011;6555;50.468;8.480;2023-04-15T10:08:08;1.40;;;0.53;;
12980;SDS011;6555;50.468;8.480;2023-04-15T10:14:28;1.20;;;0.70;;
12980;SDS011;6555;50.468;8.480;2023-04-15T10:20:30;0.63;;;0.63;;
12980;SDS011;6555;50.468;8.480;2023-04-15T10:26:42;0.80;;;0.70;;
12980;SDS011;6555;50.468;8.480;2023-04-15T10:32:47;0.80;;;0.80;;
12980;SDS011;6555;50.468;8.480;2023-04-15T10:38:49;1.57;;;0.97;;
12980;SDS011;6555;50.468;8.480;2023-04-15T10:57:14;0.60;;;0.60;;
12980;SDS011;6555;50.468;8.480;2023-04-15T11:02:39;1.73;;;0.90;;
12980;SDS011;6555;50.468;8.480;2023-04-15T11:08:14;0.70;;;0.70;;
12980;SDS011;6555;50.468;8.480;2023-04-15T11:13:35;1.90;;;0.87;;
12980;SDS011;6555;50.468;8.480;2023-04-15T11:19:29;0.70;;;0.70;;
12980;SDS011;6555;50.468;8.480;2023-04-15T11:24:51;0.73;;;0.73;;
12980;SDS011;6555;50.468;8.480;2023-04-15T11:30:25;0.83;;;0.83;;
12980;SDS011;6555;50.468;8.480;2023-04-15T11:35:47;0.80;;;0.80;;
12980;SDS011;6555;50.468;8.480;2023-04-15T11:41:20;0.70;;;0.70;;
12980;SDS011;6555;50.468;8.480;2023-04-15T11:46:39;1.00;;;1.00;;
12980;SDS011;6555;50.468;8.480;2023-04-15T11:52:13;1.67;;;1.10;;
12980;SDS011;6555;50.468;8.480;2023-04-15T11:57:48;0.90;;;0.90;;
12980;SDS011;6555;50.468;8.480;2023-04-15T12:03:24;0.60;;;0.60;;
12980;SDS011;6555;50.468;8.480;2023-04-15T12:09:00;0.93;;;0.93;;
12980;SDS011;6555;50.468;8.480;2023-04-15T12:14:19;1.27;;;1.10;;
12980;SDS011;6555;50.468;8.480;2023-04-15T12:19:56;0.90;;;0.90;;
12980;SDS011;6555;50.468;8.480;2023-04-15T12:25:12;0.80;;;0.80;;
12980;SDS011;6555;50.468;8.480;2023-04-15T12:30:47;0.80;;;0.80;;
12980;SDS011;6555;50.468;8.480;2023-04-15T12:36:06;0.90;;;0.90;;
12980;SDS011;6555;50.468;8.480;2023-04-15T12:59:41;0.67;;;0.67;;
12980;SDS011;6555;50.468;8.480;2023-04-15T13:04:58;1.10;;;1.00;;
12980;SDS011;6555;50.468;8.480;2023-04-15T13:10:50;1.10;;;1.00;;
12980;SDS011;6555;50.468;8.480;2023-04-15T13:16:08;1.17;;;0.90;;
12980;SDS011;6555;50.468;8.480;2023-04-15T13:21:42;0.90;;;0.90;;
12980;SDS011;6555;50.468;8.480;2023-04-15T13:26:59;0.93;;;0.90;;
12980;SDS011;6555;50.468;8.480;2023-04-15T13:32:34;0.70;;;0.70;;
12980;SDS011;6555;50.468;8.480;2023-04-15T13:37:50;0.83;;;0.83;;
12980;SDS011;6555;50.468;8.480;2023-04-15T13:43:26;0.90;;;0.90;;
12980;SDS011;6555;50.468;8.480;2023-04-15T13:48:45;1.10;;;0.90;;
12980;SDS011;6555;50.468;8.480;2023-04-15T13:54:16;0.60;;;0.60;;
12980;SDS011;6555;50.468;8.480;2023-04-15T13:59:51;0.70;;;0.70;;
12980;SDS011;6555;50.468;8.480;2023-04-15T14:05:23;0.70;;;0.70;;
12980;SDS011;6555;50.468;8.480;2023-04-15T14:10:39;0.57;;;0.57;;
12980;SDS011;6555;50.468;8.480;2023-04-15T14:16:09;0.50;;;0.50;;
12980;SDS011;6555;50.468;8.480;2023-04-15T14:21:30;0.33;;;0.33;;
12980;SDS011;6555;50.468;8.480;2023-04-15T14:27:00;0.40;;;0.40;;
12980;SDS011;6555;50.468;8.480;2023-04-15T14:32:17;0.70;;;0.70;;
12980;SDS011;6555;50.468;8.480;2023-04-15T14:37:49;0.60;;;0.40;;
12980;SDS011;6555;50.468;8.480;2023-04-15T14:43:05;0.50;;;0.50;;
12980;SDS011;6555;50.468;8.480;2023-04-15T14:48:35;0.40;;;0.40;;
12980;SDS011;6555;50.468;8.480;2023-04-15T14:53:54;0.50;;;0.50;;
12980;SDS011;6555;50.468;8.480;2023-04-15T14:59:24;0.37;;;0.37;;
12980;SDS011;6555;50.468;8.480;2023-04-15T15:04:40;0.50;;;0.50;;
12980;SDS011;6555;50.468;8.480;2023-04-15T15:10:13;0.70;;;0.40;;
12980;SDS011;6555;50.468;8.480;2023-04-15T15:15:49;0.57;;;0.57;;
12980;SDS011;6555;50.468;8.480;2023-04-15T15:21:19;0.33;;;0.33;;
12980;SDS011;6555;50.468;8.480;2023-04-15T15:26:39;0.47;;;0.47;;
12980;SDS011;6555;50.468;8.480;2023-04-15T15:32:11;0.40;;;0.40;;
12980;SDS011;6555;50.468;8.480;2023-04-15T15:37:28;0.30;;;0.30;;
12980;SDS011;6555;50.468;8.480;2023-04-15T15:43:01;0.63;;;0.40;;
12980;SDS011;6555;50.468;8.480;2023-04-15T15:48:18;0.30;;;0.30;;
12980;SDS011;6555;50.468;8.480;2023-04-15T15:53:48;0.30;;;0.30;;
12980;SDS011;6555;50.468;8.480;2023-04-15T15:59:08;0.50;;;0.43;;
12980;SDS011;6555;50.468;8.480;2023-04-15T16:09:55;0.60;;;0.60;;
12980;SDS011;6555;50.468;8.480;2023-04-15T16:15:17;0.50;;;0.50;;
12980;SDS011;6555;50.468;8.480;2023-04-15T16:20:47;0.50;;;0.50;;
12980;SDS011;6555;50.468;8.480;2023-04-15T16:26:03;0.50;;;0.50;;
12980;SDS011;6555;50.468;8.480;2023-04-15T16:31:37;0.50;;;0.50;;
12980;SDS011;6555;50.468;8.480;2023-04-15T16:36:54;0.47;;;0.47;;
12980;SDS011;6555;50.468;8.480;2023-04-15T16:42:26;0.40;;;0.40;;
12980;SDS011;6555;50.468;8.480;2023-04-15T16:47:45;0.90;;;0.70;;
12980;SDS011;6555;50.468;8.480;2023-04-15T16:53:17;0.40;;;0.40;;
12980;SDS011;6555;50.468;8.480;2023-04-15T16:58:33;0.50;;;0.50;;
12980;SDS011;6555;50.468;8.480;2023-04-15T17:04:07;0.50;;;0.50;;
12980;SDS011;6555;50.468;8.480;2023-04-15T17:09:24;0.80;;;0.60;;
12980;SDS011;6555;50.468;8.480;2023-04-15T17:14:56;0.40;;;0.40;;
12980;SDS011;6555;50.468;8.480;2023-04-15T17:20:14;0.30;;;0.30;;
12980;SDS011;6555;50.468;8.480;2023-04-15T17:25:44;0.70;;;0.60;;
12980;SDS011;6555;50.468;8.480;2023-04-15T17:31:02;0.50;;;0.50;;
12980;SDS011;6555;50.468;8.480;2023-04-15T17:36:35;0.30;;;0.30;;
12980;SDS011;6555;50.468;8.480;2023-04-15T17:41:55;0.50;;;0.50;;
12980;SDS011;6555;50.468;8.480;2023-04-15T17:47:28;0.20;;;0.20;;
12980;SDS011;6555;50.468;8.480;2023-04-15T17:52:46;0.40;;;0.40;;
12980;SDS011;6555;50.468;8.480;2023-04-15T17:58:16;0.40;;;0.40;;
12980;SDS011;6555;50.468;8.480;2023-04-15T18:03:35;0.33;;;0.30;;
12980;SDS011;6555;50.468;8.480;2023-04-15T18:09:07;0.43;;;0.43;;
12980;SDS011;6555;50.468;8.480;2023-04-15T18:14:24;0.40;;;0.40;;
12980;SDS011;6555;50.468;8.480;2023-04-15T18:19:54;0.63;;;0.43;;
12980;SDS011;6555;50.468;8.480;2023-04-15T18:25:18;0.50;;;0.50;;
12980;SDS011;6555;50.468;8.480;2023-04-15T18:30:52;0.40;;;0.40;;
12980;SDS011;6555;50.468;8.480;2023-04-15T18:36:09;0.13;;;0.13;;
12980;SDS011;6555;50.468;8.480;2023-04-15T18:41:43;0.47;;;0.47;;
12980;SDS011;6555;50.468;8.480;2023-04-15T18:46:59;0.50;;;0.50;;
12980;SDS011;6555;50.468;8.480;2023-04-15T18:52:29;0.70;;;0.67;;
12980;SDS011;6555;50.468;8.480;2023-04-15T18:57:49;0.47;;;0.47;;
12980;SDS011;6555;50.468;8.480;2023-04-15T19:03:22;0.60;;;0.60;;
12980;SDS011;6555;50.468;8.480;2023-04-15T19:08:40;0.60;;;0.60;;
12980;SDS011;6555;50.468;8.480;2023-04-15T19:14:15;0.60;;;0.60;;
12980;SDS011;6555;50.468;8.480;2023-04-15T19:19:31;0.70;;;0.70;;
12980;SDS011;6555;50.468;8.480;2023-04-15T19:25:01;0.60;;;0.60;;
12980;SDS011;6555;50.468;8.480;2023-04-15T19:30:20;0.57;;;0.57;;
12980;SDS011;6555;50.468;8.480;2023-04-15T19:35:54;0.80;;;0.80;;
12980;SDS011;6555;50.468;8.480;2023-04-15T19:41:10;0.70;;;0.70;;
12980;SDS011;6555;50.468;8.480;2023-04-15T19:46:42;0.50;;;0.50;;
12980;SDS011;6555;50.468;8.480;2023-04-15T19:51:59;0.50;;;0.50;;
12980;SDS011;6555;50.468;8.480;2023-04-15T19:57:30;0.70;;;0.70;;
12980;SDS011;6555;50.468;8.480;2023-04-15T20:02:48;1.87;;;0.80;;
12980;SDS011;6555;50.468;8.480;2023-04-15T20:08:18;0.80;;;0.80;;
12980;SDS011;6555;50.468;8.480;2023-04-15T20:13:35;0.77;;;0.77;;
12980;SDS011;6555;50.468;8.480;2023-04-15T20:19:07;0.80;;;0.80;;
12980;SDS011;6555;50.468;8.480;2023-04-15T20:24:25;0.50;;;0.50;;
12980;SDS011;6555;50.468;8.480;2023-04-15T20:29:55;0.70;;;0.70;;
12980;SDS011;6555;50.468;8.480;2023-04-15T20:35:13;0.67;;;0.67;;
12980;SDS011;6555;50.468;8.480;2023-04-15T20:40:43;0.70;;;0.70;;
12980;SDS011;6555;50.468;8.480;2023-04-15T20:45:59;0.60;;;0.60;;
12980;SDS011;6555;50.468;8.480;2023-04-15T20:51:37;0.80;;;0.80;;
12980;SDS011;6555;50.468;8.480;2023-04-15T20:56:54;0.60;;;0.60;;
12980;SDS011;6555;50.468;8.480;2023-04-15T21:02:25;0.43;;;0.43;;
12980;SDS011;6555;50.468;8.480;2023-04-15T21:08:03;0.47;;;0.47;;
12980;SDS011;6555;50.468;8.480;2023-04-15T21:13:07;0.47;;;0.47;;
12980;SDS011;6555;50.468;8.480;2023-04-15T21:18:13;0.60;;;0.60;;
12980;SDS011;6555;50.468;8.480;2023-04-15T21:23:18;0.60;;;0.60;;
12980;SDS011;6555;50.468;8.480;2023-04-15T21:28:21;0.50;;;0.50;;
12980;SDS011;6555;50.468;8.480;2023-04-15T21:33:25;0.60;;;0.60;;
12980;SDS011;6555;50.468;8.480;2023-04-15T21:38:31;0.60;;;0.60;;
12980;SDS011;6555;50.468;8.480;2023-04-15T21:43:38;0.90;;;0.90;;
12980;SDS011;6555;50.468;8.480;2023-04-15T21:48:41;0.67;;;0.67;;
12980;SDS011;6555;50.468;8.480;2023-04-15T21:53:46;0.80;;;0.80;;
12980;SDS011;6555;50.468;8.480;2023-04-15T21:58:49;1.07;;;0.97;;
12980;SDS011;6555;50.468;8.480;2023-04-15T22:03:59;1.10;;;1.00;;
12980;SDS011;6555;50.468;8.480;2023-04-15T22:09:09;0.90;;;0.90;;
12980;SDS011;6555;50.468;8.480;2023-04-15T22:14:15;1.47;;;1.00;;
12980;SDS011;6555;50.468;8.480;2023-04-15T22:19:18;1.30;;;1.20;;
12980;SDS011;6555;50.468;8.480;2023-04-15T22:24:26;1.40;;;1.30;;
12980;SDS011;6555;50.468;8.480;2023-04-15T22:29:40;1.30;;;1.20;;
12980;SDS011;6555;50.468;8.480;2023-04-15T22:34:46;1.43;;;1.33;;
12980;SDS011;6555;50.468;8.480;2023-04-15T22:39:54;1.50;;;1.40;;
12980;SDS011;6555;50.468;8.480;2023-04-15T22:44:58;1.90;;;1.70;;
12980;SDS011;6555;50.468;8.480;2023-04-15T22:50:06;1.60;;;1.50;;
12980;SDS011;6555;50.468;8.480;2023-04-15T22:55:20;1.83;;;1.70;;
12980;SDS011;6555;50.468;8.480;2023-04-15T23:00:23;2.10;;;1.63;;
12980;SDS011;6555;50.468;8.480;2023-04-15T23:05:28;1.53;;;1.43;;
12980;SDS011;6555;50.468;8.480;2023-04-15T23:10:33;2.20;;;2.00;;
12980;SDS011;6555;50.468;8.480;2023-04-15T23:15:40;5.90;;;2.03;;
12980;SDS011;6555;50.468;8.480;2023-04-15T23:21:04;2.30;;;2.10;;
12980;SDS011;6555;50.468;8.480;2023-04-15T23:27:27;1.80;;;1.60;;
12980;SDS011;6555;50.468;8.480;2023-04-15T23:32:36;2.03;;;1.87;;
12980;SDS011;6555;50.468;8.480;2023-04-15T23:37:47;2.13;;;1.93;;
12980;SDS011;6555;50.468;8.480;2023-04-15T23:42:57;1.93;;;1.80;;
12980;SDS011;6555;50.468;8.480;2023-04-15T23:48:05;2.10;;;1.90;;
12980;SDS011;6555;50.468;8.480;2023-04-15T23:53:16;2.17;;;1.80;;
12980;SDS011;6555;50.468;8.480;2023-04-15T23:58:21;2.27;;;2.00;;
